TimeCST,TemperatureF,Dew PointF,Humidity,Sea Level PressureIn,VisibilityMPH,Wind Direction,Wind SpeedMPH,Gust SpeedMPH,PrecipitationIn,Events,Conditions,WindDirDegrees,DateUTC
12:54 AM,-0.0,-6.0,76,30.19,10.0,WNW,6.9,-,N/A,,Mostly Cloudy,290,2013-01-21 06:54:00
1:54 AM,1.0,-5.1,75,30.18,4.0,NW,9.2,-,0.00,Snow,Light Snow,310,2013-01-21 07:54:00
2:07 AM,1.4,-4.0,78,30.08,2.0,West,8.1,-,0.00,Snow,Light Snow,280,2013-01-21 08:07:00
2:17 AM,1.4,-5.8,72,30.08,7.0,WNW,11.5,-,0.00,,Overcast,290,2013-01-21 08:17:00
2:54 AM,-0.9,-7.1,75,30.18,6.0,WNW,15.0,-,0.00,,Haze,300,2013-01-21 08:54:00
3:11 AM,-0.4,-5.8,78,30.08,1.8,WNW,10.4,-,0.00,Snow,Light Snow,300,2013-01-21 09:11:00
3:23 AM,-0.4,-7.6,72,30.08,3.0,WNW,16.1,-,0.00,Snow,Light Snow,300,2013-01-21 09:23:00
3:50 AM,-2.2,-9.4,71,30.08,9.0,WNW,16.1,23.0,0.00,,Overcast,300,2013-01-21 09:50:00
3:54 AM,-2.9,-9.0,75,30.18,8.0,WNW,15.0,23.0,0.00,,Overcast,300,2013-01-21 09:54:00
4:14 AM,-2.2,-9.4,71,30.08,8.0,NW,12.7,25.3,N/A,,Mostly Cloudy,310,2013-01-21 10:14:00
4:23 AM,-4.0,-9.4,78,30.08,9.0,WNW,13.8,-,N/A,,Mostly Cloudy,300,2013-01-21 10:23:00
4:54 AM,-5.1,-11.0,76,30.19,10.0,WNW,12.7,26.5,N/A,,Scattered Clouds,300,2013-01-21 10:54:00
5:36 AM,-5.8,-13.0,71,30.09,8.0,NW,21.9,26.5,N/A,,Mostly Cloudy,310,2013-01-21 11:36:00
5:54 AM,-6.0,-14.1,68,30.20,7.0,WNW,21.9,-,N/A,,Overcast,300,2013-01-21 11:54:00
6:44 AM,-7.6,-13.0,77,30.09,1.0,NW,18.4,-,0.00,Snow,Light Snow,310,2013-01-21 12:44:00
6:54 AM,-8.0,-14.1,75,30.21,2.0,NW,17.3,-,0.00,Snow,Light Snow,310,2013-01-21 12:54:00
7:02 AM,-7.6,-14.8,71,30.10,4.0,NW,15.0,-,0.00,,Haze,310,2013-01-21 13:02:00
7:13 AM,-7.6,-14.8,71,30.10,6.0,NW,16.1,-,0.00,,Haze,310,2013-01-21 13:13:00
7:24 AM,-7.6,-14.8,71,30.10,3.0,NW,17.3,-,0.00,Snow,Light Snow,320,2013-01-21 13:24:00
7:26 AM,-7.6,-14.8,71,30.11,2.5,NW,12.7,-,0.00,Snow,Light Snow,310,2013-01-21 13:26:00
7:31 AM,-7.6,-14.8,71,30.10,1.8,NW,15.0,-,0.00,Snow,Light Snow,310,2013-01-21 13:31:00
7:35 AM,-7.6,-14.8,71,30.10,2.0,WNW,15.0,20.7,0.00,Snow,Light Snow,300,2013-01-21 13:35:00
7:39 AM,-7.6,-14.8,71,30.11,3.0,WNW,16.1,-,0.00,,Haze,300,2013-01-21 13:39:00
7:54 AM,-8.0,-16.1,68,30.22,3.0,WNW,16.1,-,0.00,Snow,Light Snow,300,2013-01-21 13:54:00
8:52 AM,-7.6,-18.4,59,30.13,10.0,WNW,19.6,26.5,0.00,,Scattered Clouds,300,2013-01-21 14:52:00
8:54 AM,-8.0,-18.0,61,30.25,10.0,WNW,19.6,26.5,0.00,,Partly Cloudy,300,2013-01-21 14:54:00
9:27 AM,-7.6,-16.6,65,30.14,9.0,NW,16.1,25.3,N/A,,Mostly Cloudy,310,2013-01-21 15:27:00
9:54 AM,-8.0,-16.1,68,30.26,4.0,WNW,18.4,25.3,N/A,,Haze,300,2013-01-21 15:54:00
10:14 AM,-7.6,-16.6,65,30.14,1.8,NW,20.7,25.3,0.00,Snow,Light Snow,310,2013-01-21 16:14:00
10:24 AM,-9.4,-16.6,71,30.15,2.5,NW,17.3,28.8,0.00,Snow,Light Snow,310,2013-01-21 16:24:00
10:37 AM,-7.6,-16.6,65,30.15,1.2,WNW,17.3,24.2,0.00,Snow,Light Snow,300,2013-01-21 16:37:00
10:51 AM,-7.6,-16.6,65,30.15,3.0,NW,17.3,26.5,0.00,Snow,Light Snow,310,2013-01-21 16:51:00
10:54 AM,-8.0,-17.0,65,30.27,3.0,WNW,17.3,27.6,0.00,,Haze,300,2013-01-21 16:54:00
11:54 AM,-8.0,-18.0,61,30.26,10.0,WNW,19.6,26.5,N/A,,Overcast,300,2013-01-21 17:54:00
12:54 PM,-7.1,-18.0,59,30.24,10.0,NW,20.7,26.5,N/A,,Overcast,310,2013-01-21 18:54:00
1:54 PM,-6.0,-17.0,59,30.24,10.0,WNW,18.4,25.3,N/A,,Overcast,290,2013-01-21 19:54:00
2:54 PM,-6.0,-18.0,56,30.24,10.0,NW,16.1,23.0,N/A,,Mostly Cloudy,310,2013-01-21 20:54:00
3:54 PM,-7.1,-18.0,59,30.25,10.0,WNW,12.7,21.9,N/A,,Mostly Cloudy,300,2013-01-21 21:54:00
4:46 PM,-7.6,-18.4,59,30.13,10.0,WNW,13.8,-,N/A,,Partly Cloudy,300,2013-01-21 22:46:00
4:54 PM,-8.0,-18.0,61,30.26,10.0,WNW,12.7,-,N/A,,Scattered Clouds,300,2013-01-21 22:54:00
5:03 PM,-7.6,-18.4,59,30.13,10.0,WNW,16.1,21.9,N/A,,Mostly Cloudy,300,2013-01-21 23:03:00
5:23 PM,-7.6,-18.4,59,30.13,10.0,WNW,12.7,-,N/A,,Scattered Clouds,300,2013-01-21 23:23:00
5:31 PM,-7.6,-18.4,59,30.13,10.0,WNW,12.7,-,N/A,,Mostly Cloudy,300,2013-01-21 23:31:00
5:51 PM,-9.4,-16.6,71,30.14,10.0,WNW,11.5,-,N/A,,Scattered Clouds,300,2013-01-21 23:51:00
5:54 PM,-9.0,-17.0,68,30.27,10.0,WNW,11.5,-,N/A,,Scattered Clouds,300,2013-01-21 23:54:00
6:54 PM,-9.0,-18.0,65,30.28,10.0,WNW,11.5,-,N/A,,Clear,300,2013-01-22 00:54:00
7:54 PM,-9.0,-18.0,65,30.29,10.0,WNW,13.8,-,N/A,,Clear,300,2013-01-22 01:54:00
8:54 PM,-9.9,-18.0,68,30.30,10.0,NW,10.4,-,N/A,,Clear,310,2013-01-22 02:54:00
9:54 PM,-9.9,-18.0,68,30.32,10.0,NW,10.4,-,N/A,,Clear,310,2013-01-22 03:54:00
10:54 PM,-9.9,-18.0,68,30.32,10.0,WNW,8.1,-,N/A,,Clear,300,2013-01-22 04:54:00
11:54 PM,-11.0,-18.0,71,30.32,10.0,NW,9.2,-,N/A,,Clear,310,2013-01-22 05:54:00